sensor_id;sensor_type;location;lat;lon;timestamp;P1;durP1;ratioP1;P2;durP2;ratioP2
17631;SDS011;8934;51.194;17.150;2023-12-29T00:01:34;44.85;;;15.65;;
17631;SDS011;8934;51.194;17.150;2023-12-29T00:04:23;29.50;;;12.57;;
17631;SDS011;8934;51.194;17.150;2023-12-29T00:07:11;33.33;;;13.73;;
17631;SDS011;8934;51.194;17.150;2023-12-29T00:09:59;33.63;;;15.07;;
17631;SDS011;8934;51.194;17.150;2023-12-29T00:12:47;28.80;;;15.88;;
17631;SDS011;8934;51.194;17.150;2023-12-29T00:15:35;42.75;;;16.58;;
17631;SDS011;8934;51.194;17.150;2023-12-29T00:18:23;35.70;;;18.77;;
17631;SDS011;8934;51.194;17.150;2023-12-29T00:21:12;51.15;;;17.38;;
17631;SDS011;8934;51.194;17.150;2023-12-29T00:24:02;43.25;;;15.20;;
17631;SDS011;8934;51.194;17.150;2023-12-29T00:26:50;45.58;;;15.18;;
17631;SDS011;8934;51.194;17.150;2023-12-29T00:29:38;32.55;;;15.25;;
17631;SDS011;8934;51.194;17.150;2023-12-29T00:32:26;40.08;;;16.80;;
17631;SDS011;8934;51.194;17.150;2023-12-29T00:35:15;41.03;;;15.65;;
17631;SDS011;8934;51.194;17.150;2023-12-29T00:38:03;39.90;;;19.23;;
17631;SDS011;8934;51.194;17.150;2023-12-29T00:40:51;42.85;;;16.25;;
17631;SDS011;8934;51.194;17.150;2023-12-29T00:43:39;35.78;;;16.60;;
17631;SDS011;8934;51.194;17.150;2023-12-29T00:46:26;41.08;;;17.55;;
17631;SDS011;8934;51.194;17.150;2023-12-29T00:49:14;52.60;;;19.40;;
17631;SDS011;8934;51.194;17.150;2023-12-29T00:52:02;27.40;;;15.40;;
17631;SDS011;8934;51.194;17.150;2023-12-29T00:54:52;36.67;;;15.60;;
17631;SDS011;8934;51.194;17.150;2023-12-29T00:57:40;41.75;;;18.42;;
17631;SDS011;8934;51.194;17.150;2023-12-29T01:00:27;47.13;;;18.27;;
17631;SDS011;8934;51.194;17.150;2023-12-29T01:03:15;37.42;;;16.23;;
17631;SDS011;8934;51.194;17.150;2023-12-29T01:06:03;40.08;;;18.77;;
17631;SDS011;8934;51.194;17.150;2023-12-29T01:08:51;38.85;;;16.08;;
17631;SDS011;8934;51.194;17.150;2023-12-29T01:11:39;50.17;;;19.67;;
17631;SDS011;8934;51.194;17.150;2023-12-29T01:14:28;43.83;;;19.60;;
17631;SDS011;8934;51.194;17.150;2023-12-29T01:17:17;34.80;;;17.65;;
17631;SDS011;8934;51.194;17.150;2023-12-29T01:20:05;37.33;;;15.07;;
17631;SDS011;8934;51.194;17.150;2023-12-29T01:22:53;48.95;;;18.35;;
17631;SDS011;8934;51.194;17.150;2023-12-29T01:25:42;33.80;;;16.23;;
17631;SDS011;8934;51.194;17.150;2023-12-29T01:28:32;36.72;;;14.50;;
17631;SDS011;8934;51.194;17.150;2023-12-29T01:31:19;39.40;;;17.55;;
17631;SDS011;8934;51.194;17.150;2023-12-29T01:34:07;33.38;;;16.45;;
17631;SDS011;8934;51.194;17.150;2023-12-29T01:36:55;36.65;;;15.60;;
17631;SDS011;8934;51.194;17.150;2023-12-29T01:39:42;27.00;;;13.93;;
17631;SDS011;8934;51.194;17.150;2023-12-29T01:42:30;16.33;;;9.68;;
17631;SDS011;8934;51.194;17.150;2023-12-29T01:45:21;19.45;;;9.63;;
17631;SDS011;8934;51.194;17.150;2023-12-29T01:48:09;19.45;;;9.48;;
17631;SDS011;8934;51.194;17.150;2023-12-29T01:50:57;23.95;;;9.50;;
17631;SDS011;8934;51.194;17.150;2023-12-29T01:53:45;13.60;;;7.68;;
17631;SDS011;8934;51.194;17.150;2023-12-29T01:56:33;18.38;;;8.35;;
17631;SDS011;8934;51.194;17.150;2023-12-29T01:59:21;14.25;;;5.78;;
17631;SDS011;8934;51.194;17.150;2023-12-29T02:02:13;14.50;;;6.20;;
17631;SDS011;8934;51.194;17.150;2023-12-29T02:05:01;12.23;;;6.40;;
17631;SDS011;8934;51.194;17.150;2023-12-29T02:07:51;13.50;;;5.68;;
17631;SDS011;8934;51.194;17.150;2023-12-29T02:10:40;13.98;;;6.95;;
17631;SDS011;8934;51.194;17.150;2023-12-29T02:13:27;9.75;;;4.63;;
17631;SDS011;8934;51.194;17.150;2023-12-29T02:16:16;12.73;;;6.57;;
17631;SDS011;8934;51.194;17.150;2023-12-29T02:19:23;8.95;;;4.53;;
17631;SDS011;8934;51.194;17.150;2023-12-29T02:22:26;10.65;;;4.93;;
17631;SDS011;8934;51.194;17.150;2023-12-29T02:25:15;8.63;;;4.93;;
17631;SDS011;8934;51.194;17.150;2023-12-29T02:28:05;10.10;;;4.85;;
17631;SDS011;8934;51.194;17.150;2023-12-29T02:31:00;9.85;;;5.22;;
17631;SDS011;8934;51.194;17.150;2023-12-29T02:33:53;6.68;;;4.45;;
17631;SDS011;8934;51.194;17.150;2023-12-29T02:36:42;7.63;;;4.95;;
17631;SDS011;8934;51.194;17.150;2023-12-29T02:39:31;7.15;;;5.05;;
17631;SDS011;8934;51.194;17.150;2023-12-29T02:42:20;9.65;;;4.45;;
17631;SDS011;8934;51.194;17.150;2023-12-29T02:45:08;11.02;;;4.97;;
17631;SDS011;8934;51.194;17.150;2023-12-29T02:47:56;7.00;;;4.53;;
17631;SDS011;8934;51.194;17.150;2023-12-29T02:50:45;6.10;;;3.90;;
17631;SDS011;8934;51.194;17.150;2023-12-29T02:53:33;8.63;;;4.25;;
17631;SDS011;8934;51.194;17.150;2023-12-29T02:56:20;6.03;;;3.88;;
17631;SDS011;8934;51.194;17.150;2023-12-29T02:59:09;6.85;;;4.25;;
17631;SDS011;8934;51.194;17.150;2023-12-29T03:01:58;8.60;;;5.28;;
17631;SDS011;8934;51.194;17.150;2023-12-29T03:04:47;6.00;;;3.88;;
17631;SDS011;8934;51.194;17.150;2023-12-29T03:07:35;11.73;;;5.18;;
17631;SDS011;8934;51.194;17.150;2023-12-29T03:10:22;8.77;;;4.75;;
17631;SDS011;8934;51.194;17.150;2023-12-29T03:13:10;7.20;;;4.30;;
17631;SDS011;8934;51.194;17.150;2023-12-29T03:15:59;6.55;;;4.10;;
17631;SDS011;8934;51.194;17.150;2023-12-29T03:18:48;7.35;;;3.80;;
17631;SDS011;8934;51.194;17.150;2023-12-29T03:21:36;9.77;;;4.80;;
17631;SDS011;8934;51.194;17.150;2023-12-29T03:24:24;11.05;;;4.38;;
17631;SDS011;8934;51.194;17.150;2023-12-29T03:27:12;7.95;;;3.80;;
17631;SDS011;8934;51.194;17.150;2023-12-29T03:30:00;12.93;;;5.00;;
17631;SDS011;8934;51.194;17.150;2023-12-29T03:32:49;8.93;;;4.50;;
17631;SDS011;8934;51.194;17.150;2023-12-29T03:35:37;9.52;;;4.20;;
17631;SDS011;8934;51.194;17.150;2023-12-29T03:38:25;9.43;;;5.55;;
17631;SDS011;8934;51.194;17.150;2023-12-29T03:41:13;11.10;;;6.13;;
17631;SDS011;8934;51.194;17.150;2023-12-29T03:44:01;7.53;;;4.85;;
17631;SDS011;8934;51.194;17.150;2023-12-29T03:46:49;7.68;;;4.30;;
17631;SDS011;8934;51.194;17.150;2023-12-29T03:49:38;8.13;;;5.68;;
17631;SDS011;8934;51.194;17.150;2023-12-29T03:52:26;6.78;;;4.10;;
17631;SDS011;8934;51.194;17.150;2023-12-29T03:55:14;7.30;;;4.25;;
17631;SDS011;8934;51.194;17.150;2023-12-29T03:58:02;9.75;;;4.72;;
17631;SDS011;8934;51.194;17.150;2023-12-29T04:00:49;8.35;;;5.22;;
17631;SDS011;8934;51.194;17.150;2023-12-29T04:03:37;7.65;;;4.63;;
17631;SDS011;8934;51.194;17.150;2023-12-29T04:06:26;9.38;;;4.95;;
17631;SDS011;8934;51.194;17.150;2023-12-29T04:09:14;8.88;;;5.28;;
17631;SDS011;8934;51.194;17.150;2023-12-29T04:12:02;6.50;;;4.10;;
17631;SDS011;8934;51.194;17.150;2023-12-29T04:14:50;9.05;;;5.85;;
17631;SDS011;8934;51.194;17.150;2023-12-29T04:17:38;13.40;;;4.32;;
17631;SDS011;8934;51.194;17.150;2023-12-29T04:20:26;11.93;;;4.25;;
17631;SDS011;8934;51.194;17.150;2023-12-29T04:23:15;7.65;;;4.00;;
17631;SDS011;8934;51.194;17.150;2023-12-29T04:26:03;8.98;;;5.15;;
17631;SDS011;8934;51.194;17.150;2023-12-29T04:28:51;12.98;;;6.47;;
17631;SDS011;8934;51.194;17.150;2023-12-29T04:31:38;7.25;;;4.57;;
17631;SDS011;8934;51.194;17.150;2023-12-29T04:34:26;7.45;;;4.35;;
17631;SDS011;8934;51.194;17.150;2023-12-29T04:37:14;7.93;;;3.60;;
17631;SDS011;8934;51.194;17.150;2023-12-29T04:40:03;7.85;;;4.15;;
17631;SDS011;8934;51.194;17.150;2023-12-29T04:42:51;4.03;;;3.30;;
17631;SDS011;8934;51.194;17.150;2023-12-29T04:45:39;7.85;;;4.53;;
17631;SDS011;8934;51.194;17.150;2023-12-29T04:48:27;6.60;;;4.60;;
17631;SDS011;8934;51.194;17.150;2023-12-29T04:51:15;10.38;;;5.07;;
17631;SDS011;8934;51.194;17.150;2023-12-29T04:54:03;9.38;;;4.63;;
17631;SDS011;8934;51.194;17.150;2023-12-29T04:56:52;11.55;;;5.90;;
17631;SDS011;8934;51.194;17.150;2023-12-29T04:59:39;11.85;;;4.90;;
17631;SDS011;8934;51.194;17.150;2023-12-29T05:02:27;12.75;;;4.72;;
17631;SDS011;8934;51.194;17.150;2023-12-29T05:05:14;9.40;;;5.32;;
17631;SDS011;8934;51.194;17.150;2023-12-29T05:08:02;11.57;;;5.22;;
17631;SDS011;8934;51.194;17.150;2023-12-29T05:10:49;11.82;;;6.18;;
17631;SDS011;8934;51.194;17.150;2023-12-29T05:13:38;9.20;;;4.57;;
17631;SDS011;8934;51.194;17.150;2023-12-29T05:16:25;9.68;;;4.75;;
17631;SDS011;8934;51.194;17.150;2023-12-29T05:19:13;10.25;;;5.07;;
17631;SDS011;8934;51.194;17.150;2023-12-29T05:22:01;12.57;;;5.15;;
17631;SDS011;8934;51.194;17.150;2023-12-29T05:24:49;9.80;;;4.78;;
17631;SDS011;8934;51.194;17.150;2023-12-29T05:27:36;6.70;;;4.32;;
17631;SDS011;8934;51.194;17.150;2023-12-29T05:30:25;9.45;;;3.97;;
17631;SDS011;8934;51.194;17.150;2023-12-29T05:33:13;10.35;;;4.95;;
17631;SDS011;8934;51.194;17.150;2023-12-29T05:36:05;10.05;;;5.00;;
17631;SDS011;8934;51.194;17.150;2023-12-29T05:38:55;8.18;;;4.75;;
17631;SDS011;8934;51.194;17.150;2023-12-29T05:41:43;8.25;;;4.65;;
17631;SDS011;8934;51.194;17.150;2023-12-29T05:44:30;6.05;;;4.25;;
17631;SDS011;8934;51.194;17.150;2023-12-29T05:47:19;5.93;;;3.65;;
17631;SDS011;8934;51.194;17.150;2023-12-29T05:50:07;12.23;;;5.13;;
17631;SDS011;8934;51.194;17.150;2023-12-29T05:52:55;4.72;;;3.72;;
17631;SDS011;8934;51.194;17.150;2023-12-29T05:55:43;8.20;;;3.50;;
17631;SDS011;8934;51.194;17.150;2023-12-29T05:58:31;7.03;;;3.20;;
17631;SDS011;8934;51.194;17.150;2023-12-29T06:01:19;4.80;;;2.53;;
17631;SDS011;8934;51.194;17.150;2023-12-29T06:04:08;8.55;;;3.90;;
17631;SDS011;8934;51.194;17.150;2023-12-29T06:06:56;6.50;;;4.00;;
17631;SDS011;8934;51.194;17.150;2023-12-29T06:09:43;7.38;;;3.42;;
17631;SDS011;8934;51.194;17.150;2023-12-29T06:12:32;9.73;;;5.15;;
17631;SDS011;8934;51.194;17.150;2023-12-29T06:15:19;15.52;;;5.45;;
17631;SDS011;8934;51.194;17.150;2023-12-29T06:18:07;10.95;;;5.45;;
17631;SDS011;8934;51.194;17.150;2023-12-29T06:20:57;9.88;;;4.72;;
17631;SDS011;8934;51.194;17.150;2023-12-29T06:23:45;17.35;;;8.15;;
17631;SDS011;8934;51.194;17.150;2023-12-29T06:26:33;12.05;;;7.35;;
17631;SDS011;8934;51.194;17.150;2023-12-29T06:29:21;9.52;;;4.90;;
17631;SDS011;8934;51.194;17.150;2023-12-29T06:32:08;16.00;;;6.90;;
17631;SDS011;8934;51.194;17.150;2023-12-29T06:34:56;13.55;;;7.32;;
17631;SDS011;8934;51.194;17.150;2023-12-29T06:37:45;10.90;;;7.10;;
17631;SDS011;8934;51.194;17.150;2023-12-29T06:40:33;10.90;;;6.63;;
17631;SDS011;8934;51.194;17.150;2023-12-29T06:43:20;10.13;;;6.40;;
17631;SDS011;8934;51.194;17.150;2023-12-29T06:46:08;10.38;;;4.45;;
17631;SDS011;8934;51.194;17.150;2023-12-29T06:48:55;7.03;;;4.03;;
17631;SDS011;8934;51.194;17.150;2023-12-29T06:51:42;5.20;;;4.13;;
17631;SDS011;8934;51.194;17.150;2023-12-29T06:54:33;7.88;;;4.93;;
17631;SDS011;8934;51.194;17.150;2023-12-29T06:57:21;8.82;;;4.38;;
17631;SDS011;8934;51.194;17.150;2023-12-29T07:00:09;12.00;;;5.13;;
17631;SDS011;8934;51.194;17.150;2023-12-29T07:02:57;13.73;;;5.85;;
17631;SDS011;8934;51.194;17.150;2023-12-29T07:05:44;9.57;;;4.97;;
17631;SDS011;8934;51.194;17.150;2023-12-29T07:08:32;15.48;;;5.85;;
17631;SDS011;8934;51.194;17.150;2023-12-29T07:11:21;13.02;;;6.10;;
17631;SDS011;8934;51.194;17.150;2023-12-29T07:14:08;10.27;;;5.13;;
17631;SDS011;8934;51.194;17.150;2023-12-29T07:16:56;16.67;;;6.28;;
17631;SDS011;8934;51.194;17.150;2023-12-29T07:19:44;16.95;;;6.28;;
17631;SDS011;8934;51.194;17.150;2023-12-29T07:22:32;16.40;;;6.35;;
17631;SDS011;8934;51.194;17.150;2023-12-29T07:25:19;20.33;;;8.70;;
17631;SDS011;8934;51.194;17.150;2023-12-29T07:28:08;20.65;;;8.70;;
17631;SDS011;8934;51.194;17.150;2023-12-29T07:30:56;13.60;;;7.35;;
17631;SDS011;8934;51.194;17.150;2023-12-29T07:33:44;12.05;;;7.45;;
17631;SDS011;8934;51.194;17.150;2023-12-29T07:36:32;13.45;;;7.43;;
17631;SDS011;8934;51.194;17.150;2023-12-29T07:39:20;13.93;;;7.05;;
17631;SDS011;8934;51.194;17.150;2023-12-29T07:42:08;15.27;;;7.55;;
17631;SDS011;8934;51.194;17.150;2023-12-29T07:44:57;18.10;;;7.32;;
17631;SDS011;8934;51.194;17.150;2023-12-29T07:47:45;19.90;;;6.75;;
17631;SDS011;8934;51.194;17.150;2023-12-29T07:50:33;15.13;;;6.38;;
17631;SDS011;8934;51.194;17.150;2023-12-29T07:53:21;11.60;;;6.45;;
17631;SDS011;8934;51.194;17.150;2023-12-29T07:56:09;17.13;;;7.45;;
17631;SDS011;8934;51.194;17.150;2023-12-29T07:58:57;14.07;;;6.10;;
17631;SDS011;8934;51.194;17.150;2023-12-29T08:01:46;14.50;;;6.40;;
17631;SDS011;8934;51.194;17.150;2023-12-29T08:04:34;18.10;;;7.60;;
17631;SDS011;8934;51.194;17.150;2023-12-29T08:07:23;14.23;;;6.32;;
17631;SDS011;8934;51.194;17.150;2023-12-29T08:10:10;15.75;;;6.60;;
17631;SDS011;8934;51.194;17.150;2023-12-29T08:12:58;19.00;;;7.03;;
17631;SDS011;8934;51.194;17.150;2023-12-29T08:15:46;20.92;;;7.35;;
17631;SDS011;8934;51.194;17.150;2023-12-29T08:18:34;17.85;;;5.40;;
17631;SDS011;8934;51.194;17.150;2023-12-29T08:21:22;14.60;;;4.80;;
17631;SDS011;8934;51.194;17.150;2023-12-29T08:24:10;9.38;;;4.63;;
17631;SDS011;8934;51.194;17.150;2023-12-29T08:26:57;7.20;;;3.90;;
17631;SDS011;8934;51.194;17.150;2023-12-29T08:29:45;10.60;;;4.70;;
17631;SDS011;8934;51.194;17.150;2023-12-29T08:32:32;8.57;;;3.88;;
17631;SDS011;8934;51.194;17.150;2023-12-29T08:35:21;8.40;;;5.43;;
17631;SDS011;8934;51.194;17.150;2023-12-29T08:38:09;32.10;;;12.52;;
17631;SDS011;8934;51.194;17.150;2023-12-29T08:40:57;34.88;;;15.30;;
17631;SDS011;8934;51.194;17.150;2023-12-29T08:43:45;27.08;;;11.10;;
17631;SDS011;8934;51.194;17.150;2023-12-29T08:46:33;25.00;;;9.38;;
17631;SDS011;8934;51.194;17.150;2023-12-29T08:49:20;17.17;;;7.85;;
17631;SDS011;8934;51.194;17.150;2023-12-29T08:52:09;13.38;;;6.65;;
17631;SDS011;8934;51.194;17.150;2023-12-29T08:54:57;11.13;;;5.55;;
17631;SDS011;8934;51.194;17.150;2023-12-29T08:57:44;17.00;;;6.15;;
17631;SDS011;8934;51.194;17.150;2023-12-29T09:00:32;11.90;;;5.75;;
17631;SDS011;8934;51.194;17.150;2023-12-29T09:03:20;10.88;;;4.43;;
17631;SDS011;8934;51.194;17.150;2023-12-29T09:06:08;7.03;;;5.65;;
17631;SDS011;8934;51.194;17.150;2023-12-29T09:08:57;10.38;;;4.63;;
17631;SDS011;8934;51.194;17.150;2023-12-29T09:11:45;8.70;;;4.57;;
17631;SDS011;8934;51.194;17.150;2023-12-29T09:14:33;11.38;;;4.57;;
17631;SDS011;8934;51.194;17.150;2023-12-29T09:17:21;9.45;;;3.80;;
17631;SDS011;8934;51.194;17.150;2023-12-29T09:20:08;8.10;;;3.85;;
17631;SDS011;8934;51.194;17.150;2023-12-29T09:22:57;6.03;;;3.65;;
17631;SDS011;8934;51.194;17.150;2023-12-29T09:25:47;5.55;;;3.40;;
17631;SDS011;8934;51.194;17.150;2023-12-29T09:28:34;5.18;;;3.55;;
17631;SDS011;8934;51.194;17.150;2023-12-29T09:31:22;6.05;;;3.42;;
17631;SDS011;8934;51.194;17.150;2023-12-29T09:34:09;6.45;;;3.17;;
17631;SDS011;8934;51.194;17.150;2023-12-29T09:36:57;7.50;;;3.60;;
17631;SDS011;8934;51.194;17.150;2023-12-29T09:39:45;5.15;;;3.40;;
17631;SDS011;8934;51.194;17.150;2023-12-29T09:42:34;8.52;;;3.95;;
17631;SDS011;8934;51.194;17.150;2023-12-29T09:45:24;4.80;;;2.80;;
17631;SDS011;8934;51.194;17.150;2023-12-29T09:48:14;5.28;;;3.00;;
17631;SDS011;8934;51.194;17.150;2023-12-29T09:51:05;8.90;;;3.15;;
17631;SDS011;8934;51.194;17.150;2023-12-29T09:53:54;3.78;;;2.90;;
17631;SDS011;8934;51.194;17.150;2023-12-29T09:56:44;3.75;;;2.33;;
17631;SDS011;8934;51.194;17.150;2023-12-29T09:59:33;2.97;;;2.03;;
17631;SDS011;8934;51.194;17.150;2023-12-29T10:02:23;5.60;;;2.47;;
17631;SDS011;8934;51.194;17.150;2023-12-29T10:05:10;3.75;;;1.90;;
17631;SDS011;8934;51.194;17.150;2023-12-29T10:07:58;5.32;;;1.80;;
17631;SDS011;8934;51.194;17.150;2023-12-29T10:10:50;4.38;;;1.85;;
17631;SDS011;8934;51.194;17.150;2023-12-29T10:13:38;6.75;;;2.00;;
17631;SDS011;8934;51.194;17.150;2023-12-29T10:16:31;4.03;;;2.38;;
17631;SDS011;8934;51.194;17.150;2023-12-29T10:19:27;4.15;;;1.38;;
17631;SDS011;8934;51.194;17.150;2023-12-29T10:22:25;1.58;;;1.00;;
17631;SDS011;8934;51.194;17.150;2023-12-29T10:25:17;1.05;;;0.95;;
17631;SDS011;8934;51.194;17.150;2023-12-29T10:28:05;1.98;;;1.23;;
17631;SDS011;8934;51.194;17.150;2023-12-29T10:30:54;3.83;;;1.73;;
17631;SDS011;8934;51.194;17.150;2023-12-29T10:33:43;3.35;;;1.38;;
17631;SDS011;8934;51.194;17.150;2023-12-29T10:36:42;1.65;;;1.25;;
17631;SDS011;8934;51.194;17.150;2023-12-29T10:39:33;3.90;;;1.75;;
17631;SDS011;8934;51.194;17.150;2023-12-29T10:42:22;3.38;;;1.88;;
17631;SDS011;8934;51.194;17.150;2023-12-29T10:45:09;3.92;;;2.70;;
17631;SDS011;8934;51.194;17.150;2023-12-29T10:47:57;3.30;;;1.25;;
17631;SDS011;8934;51.194;17.150;2023-12-29T10:50:48;4.97;;;2.53;;
17631;SDS011;8934;51.194;17.150;2023-12-29T10:53:36;2.92;;;2.05;;
17631;SDS011;8934;51.194;17.150;2023-12-29T10:56:27;4.07;;;1.60;;
17631;SDS011;8934;51.194;17.150;2023-12-29T10:59:15;3.97;;;2.08;;
17631;SDS011;8934;51.194;17.150;2023-12-29T11:02:03;1.95;;;1.50;;
17631;SDS011;8934;51.194;17.150;2023-12-29T11:04:52;4.05;;;1.85;;
17631;SDS011;8934;51.194;17.150;2023-12-29T11:07:50;2.55;;;1.38;;
17631;SDS011;8934;51.194;17.150;2023-12-29T11:10:40;4.05;;;1.90;;
17631;SDS011;8934;51.194;17.150;2023-12-29T11:13:28;1.83;;;1.48;;
17631;SDS011;8934;51.194;17.150;2023-12-29T11:16:16;3.35;;;2.15;;
17631;SDS011;8934;51.194;17.150;2023-12-29T11:19:07;3.90;;;2.15;;
17631;SDS011;8934;51.194;17.150;2023-12-29T11:21:59;4.10;;;1.83;;
17631;SDS011;8934;51.194;17.150;2023-12-29T11:24:50;3.90;;;1.67;;
17631;SDS011;8934;51.194;17.150;2023-12-29T11:27:37;5.32;;;2.95;;
17631;SDS011;8934;51.194;17.150;2023-12-29T11:30:26;4.45;;;2.42;;
17631;SDS011;8934;51.194;17.150;2023-12-29T11:33:14;4.28;;;2.50;;
17631;SDS011;8934;51.194;17.150;2023-12-29T11:36:09;6.45;;;3.03;;
17631;SDS011;8934;51.194;17.150;2023-12-29T11:39:17;2.97;;;1.90;;
17631;SDS011;8934;51.194;17.150;2023-12-29T11:42:14;3.33;;;2.00;;
17631;SDS011;8934;51.194;17.150;2023-12-29T11:45:23;3.17;;;2.33;;
17631;SDS011;8934;51.194;17.150;2023-12-29T11:48:13;4.50;;;2.58;;
17631;SDS011;8934;51.194;17.150;2023-12-29T11:51:39;4.18;;;2.22;;
17631;SDS011;8934;51.194;17.150;2023-12-29T11:54:29;5.38;;;3.00;;
17631;SDS011;8934;51.194;17.150;2023-12-29T11:57:32;5.45;;;2.80;;
17631;SDS011;8934;51.194;17.150;2023-12-29T12:00:19;4.97;;;2.80;;
17631;SDS011;8934;51.194;17.150;2023-12-29T12:03:17;4.35;;;2.65;;
17631;SDS011;8934;51.194;17.150;2023-12-29T12:06:07;4.55;;;2.78;;
17631;SDS011;8934;51.194;17.150;2023-12-29T12:08:59;5.72;;;2.53;;
17631;SDS011;8934;51.194;17.150;2023-12-29T12:12:04;5.28;;;2.58;;
17631;SDS011;8934;51.194;17.150;2023-12-29T12:14:54;4.65;;;1.63;;
17631;SDS011;8934;51.194;17.150;2023-12-29T12:17:41;3.97;;;2.72;;
17631;SDS011;8934;51.194;17.150;2023-12-29T12:20:29;3.65;;;2.17;;
17631;SDS011;8934;51.194;17.150;2023-12-29T12:23:17;4.05;;;2.63;;
17631;SDS011;8934;51.194;17.150;2023-12-29T12:26:05;5.53;;;2.67;;
17631;SDS011;8934;51.194;17.150;2023-12-29T12:28:53;3.90;;;3.00;;
17631;SDS011;8934;51.194;17.150;2023-12-29T12:31:55;3.92;;;2.72;;
17631;SDS011;8934;51.194;17.150;2023-12-29T12:34:43;4.60;;;2.80;;
17631;SDS011;8934;51.194;17.150;2023-12-29T12:37:31;3.75;;;2.95;;
17631;SDS011;8934;51.194;17.150;2023-12-29T12:40:25;5.25;;;3.35;;
17631;SDS011;8934;51.194;17.150;2023-12-29T12:43:13;2.95;;;1.95;;
17631;SDS011;8934;51.194;17.150;2023-12-29T12:46:02;3.28;;;1.80;;
17631;SDS011;8934;51.194;17.150;2023-12-29T12:48:52;7.15;;;3.08;;
17631;SDS011;8934;51.194;17.150;2023-12-29T12:51:41;8.65;;;4.60;;
17631;SDS011;8934;51.194;17.150;2023-12-29T12:54:30;6.55;;;3.97;;
17631;SDS011;8934;51.194;17.150;2023-12-29T12:57:20;7.47;;;4.50;;
17631;SDS011;8934;51.194;17.150;2023-12-29T13:00:09;10.50;;;4.80;;
17631;SDS011;8934;51.194;17.150;2023-12-29T13:02:59;5.80;;;2.50;;
17631;SDS011;8934;51.194;17.150;2023-12-29T13:05:49;1.98;;;1.17;;
17631;SDS011;8934;51.194;17.150;2023-12-29T13:08:38;1.80;;;0.88;;
17631;SDS011;8934;51.194;17.150;2023-12-29T13:11:28;2.75;;;1.65;;
17631;SDS011;8934;51.194;17.150;2023-12-29T13:14:19;2.17;;;0.88;;
17631;SDS011;8934;51.194;17.150;2023-12-29T13:17:08;2.10;;;1.38;;
17631;SDS011;8934;51.194;17.150;2023-12-29T13:19:57;2.58;;;1.20;;
17631;SDS011;8934;51.194;17.150;2023-12-29T13:22:48;1.23;;;0.70;;
17631;SDS011;8934;51.194;17.150;2023-12-29T13:25:36;4.55;;;2.85;;
17631;SDS011;8934;51.194;17.150;2023-12-29T13:28:26;4.55;;;1.20;;
17631;SDS011;8934;51.194;17.150;2023-12-29T13:31:16;4.40;;;2.80;;
17631;SDS011;8934;51.194;17.150;2023-12-29T13:34:06;5.60;;;2.42;;
17631;SDS011;8934;51.194;17.150;2023-12-29T13:37:00;4.95;;;2.20;;
17631;SDS011;8934;51.194;17.150;2023-12-29T13:39:55;3.20;;;1.70;;
17631;SDS011;8934;51.194;17.150;2023-12-29T13:42:48;5.38;;;2.90;;
17631;SDS011;8934;51.194;17.150;2023-12-29T13:45:39;4.68;;;2.17;;
17631;SDS011;8934;51.194;17.150;2023-12-29T13:48:28;5.72;;;1.88;;
17631;SDS011;8934;51.194;17.150;2023-12-29T13:51:21;3.92;;;1.45;;
17631;SDS011;8934;51.194;17.150;2023-12-29T13:54:10;2.45;;;1.58;;
17631;SDS011;8934;51.194;17.150;2023-12-29T13:57:00;2.20;;;1.67;;
17631;SDS011;8934;51.194;17.150;2023-12-29T13:59:47;2.45;;;1.35;;
17631;SDS011;8934;51.194;17.150;2023-12-29T14:02:35;2.83;;;1.85;;
17631;SDS011;8934;51.194;17.150;2023-12-29T14:05:23;3.50;;;1.88;;
17631;SDS011;8934;51.194;17.150;2023-12-29T14:08:16;5.25;;;1.98;;
17631;SDS011;8934;51.194;17.150;2023-12-29T14:11:09;4.07;;;1.88;;
17631;SDS011;8934;51.194;17.150;2023-12-29T14:13:58;4.20;;;1.98;;
17631;SDS011;8934;51.194;17.150;2023-12-29T14:16:46;3.83;;;2.35;;
17631;SDS011;8934;51.194;17.150;2023-12-29T14:19:34;4.43;;;2.15;;
17631;SDS011;8934;51.194;17.150;2023-12-29T14:22:23;2.45;;;1.70;;
17631;SDS011;8934;51.194;17.150;2023-12-29T14:25:12;4.35;;;1.85;;
17631;SDS011;8934;51.194;17.150;2023-12-29T14:27:59;4.40;;;1.60;;
17631;SDS011;8934;51.194;17.150;2023-12-29T14:30:49;5.65;;;2.30;;
17631;SDS011;8934;51.194;17.150;2023-12-29T14:33:36;2.95;;;2.22;;
17631;SDS011;8934;51.194;17.150;2023-12-29T14:36:24;3.45;;;1.75;;
17631;SDS011;8934;51.194;17.150;2023-12-29T14:39:12;4.18;;;2.05;;
17631;SDS011;8934;51.194;17.150;2023-12-29T14:42:01;2.67;;;2.08;;
17631;SDS011;8934;51.194;17.150;2023-12-29T14:44:48;3.50;;;1.95;;
17631;SDS011;8934;51.194;17.150;2023-12-29T14:47:37;6.15;;;2.22;;
17631;SDS011;8934;51.194;17.150;2023-12-29T14:50:25;5.65;;;2.13;;
17631;SDS011;8934;51.194;17.150;2023-12-29T14:53:13;3.25;;;1.75;;
17631;SDS011;8934;51.194;17.150;2023-12-29T14:56:01;7.25;;;1.98;;
17631;SDS011;8934;51.194;17.150;2023-12-29T14:58:48;7.90;;;1.80;;
17631;SDS011;8934;51.194;17.150;2023-12-29T15:01:36;3.60;;;1.05;;
17631;SDS011;8934;51.194;17.150;2023-12-29T15:04:25;3.92;;;1.70;;
17631;SDS011;8934;51.194;17.150;2023-12-29T15:07:17;1.75;;;1.42;;
17631;SDS011;8934;51.194;17.150;2023-12-29T15:10:05;7.78;;;2.30;;
17631;SDS011;8934;51.194;17.150;2023-12-29T15:12:53;4.55;;;1.83;;
17631;SDS011;8934;51.194;17.150;2023-12-29T15:15:41;4.78;;;1.67;;
17631;SDS011;8934;51.194;17.150;2023-12-29T15:18:28;3.03;;;1.55;;
17631;SDS011;8934;51.194;17.150;2023-12-29T15:21:18;3.42;;;1.48;;
17631;SDS011;8934;51.194;17.150;2023-12-29T15:24:06;5.35;;;1.88;;
17631;SDS011;8934;51.194;17.150;2023-12-29T15:26:53;3.17;;;1.50;;
17631;SDS011;8934;51.194;17.150;2023-12-29T15:29:41;3.45;;;1.45;;
17631;SDS011;8934;51.194;17.150;2023-12-29T15:32:28;2.55;;;1.70;;
17631;SDS011;8934;51.194;17.150;2023-12-29T15:35:16;6.80;;;2.20;;
17631;SDS011;8934;51.194;17.150;2023-12-29T15:38:05;4.03;;;1.83;;
17631;SDS011;8934;51.194;17.150;2023-12-29T15:40:52;2.35;;;1.65;;
17631;SDS011;8934;51.194;17.150;2023-12-29T15:43:40;2.17;;;1.85;;
17631;SDS011;8934;51.194;17.150;2023-12-29T15:46:28;2.90;;;1.40;;
17631;SDS011;8934;51.194;17.150;2023-12-29T15:49:15;4.53;;;1.98;;
17631;SDS011;8934;51.194;17.150;2023-12-29T15:52:03;4.20;;;1.83;;
17631;SDS011;8934;51.194;17.150;2023-12-29T15:54:53;5.22;;;2.30;;
17631;SDS011;8934;51.194;17.150;2023-12-29T15:57:41;4.93;;;2.38;;
17631;SDS011;8934;51.194;17.150;2023-12-29T16:00:28;5.03;;;2.30;;
17631;SDS011;8934;51.194;17.150;2023-12-29T16:03:16;4.50;;;2.05;;
17631;SDS011;8934;51.194;17.150;2023-12-29T16:06:04;5.80;;;1.90;;
17631;SDS011;8934;51.194;17.150;2023-12-29T16:08:52;9.32;;;2.17;;
17631;SDS011;8934;51.194;17.150;2023-12-29T16:11:44;3.50;;;1.70;;
17631;SDS011;8934;51.194;17.150;2023-12-29T16:14:32;3.95;;;2.10;;
17631;SDS011;8934;51.194;17.150;2023-12-29T16:17:23;4.97;;;2.60;;
17631;SDS011;8934;51.194;17.150;2023-12-29T16:20:10;5.70;;;2.25;;
17631;SDS011;8934;51.194;17.150;2023-12-29T16:22:58;6.20;;;2.55;;
17631;SDS011;8934;51.194;17.150;2023-12-29T16:25:46;4.90;;;2.47;;
17631;SDS011;8934;51.194;17.150;2023-12-29T16:28:35;4.13;;;2.53;;
17631;SDS011;8934;51.194;17.150;2023-12-29T16:31:23;5.68;;;2.72;;
17631;SDS011;8934;51.194;17.150;2023-12-29T16:34:10;5.78;;;2.67;;
17631;SDS011;8934;51.194;17.150;2023-12-29T16:36:58;5.15;;;2.92;;
17631;SDS011;8934;51.194;17.150;2023-12-29T16:39:46;7.47;;;3.65;;
17631;SDS011;8934;51.194;17.150;2023-12-29T16:42:34;5.35;;;3.20;;
17631;SDS011;8934;51.194;17.150;2023-12-29T16:45:23;6.82;;;3.05;;
17631;SDS011;8934;51.194;17.150;2023-12-29T16:48:11;6.20;;;2.80;;
17631;SDS011;8934;51.194;17.150;2023-12-29T16:50:58;5.65;;;3.67;;